Clinton, OK (73601)

8:32 AM CDT on September 29, 2016 (GMT -0500)
Clinton | | Change Station

Elev 1578 ft 35.52 °N, 98.97 °W | Updated 11 seconds ago

Clear
Clear
54.1 °F
Feels Like 54.1 °F
N
0.9
Wind Variable Wind from North
Gusts 2.2 mph

Today
High -- | Low -- °F
--% Chance of Precip.
Yesterday
High -- | Low -- °F
Precip. -- in
Pressure 30.35 in
Visibility 10.0 miles
Clouds Clear
Dew Point 49 °F
Humidity 77%
Rainfall 0.00 in
Snow Depth Not available.
7:29 AM 7:21 PM
Waning Crescent, 2% visible
METAR KCSM 291253Z AUTO 02010KT 10SM CLR 11/08 A3037 RMK AO2 SLP275 T01060083
Pressure 30.35 in
Visibility 10.0 miles
Clouds Clear
Dew Point 49 °F
Humidity 77%
Rainfall 0.00 in
Snow Depth Not available.
7:29 AM 7:21 PM
Waning Crescent, 2% visible
METAR KCSM 291253Z AUTO 02010KT 10SM CLR 11/08 A3037 RMK AO2 SLP275 T01060083

10-Day Weather Forecast

Almanac

Astronomy

Sep. 29, 2016 Rise Set
Actual Time
Civil Twilight
Nautical Twilight
Astronomical Twilight
Moon
Length of Visible Light
Length of Day
Tomorrow will be .
, % of the Moon is Illuminated

Today's Extremes

State Highs State Lows

Community

WunderPhotos

Upload Photos

1,942,470 photos uploaded!

WunderBlog® & News

Nearby

Air Quality

  Air Quality AQ Index Pollutant
Not available.

Snow Depth

Station Depth Elevation

Earthquake Activity

City Distance Mag. Time & Date
Minimum magnitude displayed is 2.5.

Coastal Water Temperatures

Place Temperature

Stations

Nearby Weather Stations

Station Location Temp. Windchill Dew Point Humidity Wind Precip. Elev Updated Type
                   

Watches & Warnings

There are currently no watches in effect.